Time;durP1;ratioP1;P1;durP2;ratioP2;P2;SDS_P1;SDS_P2;PMS_P1;PMS_P2;Temp;Humidity;BMP_temperature;BMP_pressure;BME280_temperature;BME280_humidity;BME280_pressure;Samples;Min_cycle;Max_cycle;Signal;HPM_P1;HPM_P2
2021/06/30 00:02:00;;;;;;;5.13;3.27;;;18.70;99.90;;;;;;5065754;28;21051;-83
2021/06/30 00:04:27;;;;;;;3.50;2.73;;;18.70;99.90;;;;;;5062019;28;21066;-83
2021/06/30 00:06:55;;;;;;;5.07;3.30;;;18.70;99.90;;;;;;5061202;28;20459;-82
2021/06/30 00:09:22;;;;;;;3.83;3.03;;;18.70;99.90;;;;;;5063967;28;20468;-84
2021/06/30 00:11:50;;;;;;;4.23;3.13;;;18.70;99.90;;;;;;5063345;28;20565;-83
2021/06/30 00:14:17;;;;;;;3.73;2.80;;;18.70;99.90;;;;;;5060676;28;20797;-83
2021/06/30 00:16:45;;;;;;;4.43;3.53;;;18.70;99.90;;;;;;5061358;28;20463;-84
2021/06/30 00:19:14;;;;;;;6.57;3.40;;;18.70;99.90;;;;;;5061780;28;20490;-83
2021/06/30 00:21:41;;;;;;;3.80;3.50;;;18.70;99.90;;;;;;5059318;28;20987;-83
2021/06/30 00:24:10;;;;;;;5.10;3.20;;;18.80;99.90;;;;;;5062571;28;20493;-85
2021/06/30 00:26:38;;;;;;;5.37;3.67;;;18.80;99.90;;;;;;5060754;28;20469;-83
2021/06/30 00:29:07;;;;;;;7.63;3.33;;;18.80;99.90;;;;;;5059296;28;20928;-85
2021/06/30 00:31:35;;;;;;;9.17;3.60;;;18.90;99.90;;;;;;5061452;28;20470;-83
2021/06/30 00:34:03;;;;;;;5.37;4.03;;;18.90;99.90;;;;;;5054470;28;20470;-82
2021/06/30 00:36:31;;;;;;;3.97;3.40;;;18.90;99.90;;;;;;5062408;28;20982;-83
2021/06/30 00:38:58;;;;;;;3.93;3.53;;;18.90;99.90;;;;;;5052567;28;20468;-82
2021/06/30 00:41:26;;;;;;;4.70;3.50;;;18.90;99.90;;;;;;5058080;28;20465;-83
2021/06/30 00:43:53;;;;;;;6.93;3.60;;;18.90;99.90;;;;;;5056539;28;20463;-82
2021/06/30 00:46:28;;;;;;;9.00;3.93;;;18.90;99.90;;;;;;5053572;28;20563;-83
2021/06/30 00:48:55;;;;;;;4.93;4.43;;;18.90;99.90;;;;;;5058779;28;20882;-85
2021/06/30 00:51:24;;;;;;;8.83;5.30;;;19.00;99.90;;;;;;5060666;28;21097;-83
2021/06/30 00:53:51;;;;;;;9.00;4.87;;;19.00;99.90;;;;;;5062824;28;20470;-82
2021/06/30 00:56:23;;;;;;;7.63;4.93;;;19.00;99.90;;;;;;5053358;28;20467;-83
2021/06/30 00:58:52;;;;;;;5.20;4.70;;;19.00;99.90;;;;;;5055931;28;20472;-84
2021/06/30 01:01:20;;;;;;;5.30;4.33;;;19.00;99.90;;;;;;5070703;28;20492;-84
2021/06/30 01:03:47;;;;;;;5.97;5.37;;;19.00;99.90;;;;;;5079939;28;20464;-84
2021/06/30 01:06:14;;;;;;;8.10;5.30;;;19.00;99.90;;;;;;5079643;28;20489;-84
2021/06/30 01:08:41;;;;;;;5.47;4.43;;;19.00;99.90;;;;;;5077037;28;21018;-83
2021/06/30 01:11:09;;;;;;;5.03;3.67;;;19.00;99.90;;;;;;5079137;28;20837;-84
2021/06/30 01:13:36;;;;;;;5.50;3.93;;;19.10;99.90;;;;;;5074725;28;21060;-82
2021/06/30 01:16:05;;;;;;;6.80;3.70;;;19.10;99.90;;;;;;5078980;28;20576;-83
2021/06/30 01:18:33;;;;;;;5.87;3.03;;;19.10;99.90;;;;;;5078415;28;20459;-82
2021/06/30 01:21:01;;;;;;;4.30;3.43;;;19.10;99.90;;;;;;5080825;28;20480;-85
2021/06/30 01:23:30;;;;;;;4.40;3.30;;;19.10;99.90;;;;;;5082287;28;20509;-83
2021/06/30 01:25:58;;;;;;;5.13;3.00;;;19.00;99.90;;;;;;5078739;28;20488;-82
2021/06/30 01:28:25;;;;;;;4.37;3.13;;;19.00;99.90;;;;;;5075667;28;20459;-85
2021/06/30 01:30:53;;;;;;;3.20;2.90;;;19.00;99.90;;;;;;5078222;28;20461;-83
2021/06/30 01:33:20;;;;;;;3.03;2.83;;;19.00;99.90;;;;;;5073220;28;20470;-83
2021/06/30 01:35:47;;;;;;;5.00;3.83;;;19.00;99.90;;;;;;5078147;28;20466;-83
2021/06/30 01:38:14;;;;;;;3.17;2.87;;;18.90;99.90;;;;;;5079566;28;20489;-83
2021/06/30 01:40:43;;;;;;;4.13;3.13;;;19.00;99.90;;;;;;5079470;28;20486;-84
2021/06/30 01:43:09;;;;;;;7.17;3.10;;;19.00;99.90;;;;;;5075011;28;20819;-83
2021/06/30 01:45:37;;;;;;;3.47;3.17;;;18.90;99.90;;;;;;5081386;28;21012;-83
2021/06/30 01:48:04;;;;;;;4.30;2.60;;;18.90;99.90;;;;;;5078466;28;21412;-85
2021/06/30 01:50:31;;;;;;;4.20;3.20;;;19.00;99.90;;;;;;5075045;28;20552;-82
2021/06/30 01:52:58;;;;;;;3.50;3.20;;;18.90;99.90;;;;;;5078521;28;20541;-83
2021/06/30 01:55:25;;;;;;;4.30;3.80;;;18.90;99.90;;;;;;5081230;28;20488;-83
2021/06/30 01:57:53;;;;;;;5.10;3.00;;;18.90;99.90;;;;;;5079112;28;20466;-86
2021/06/30 02:00:22;;;;;;;4.10;2.80;;;19.00;99.90;;;;;;5083747;28;21045;-83
2021/06/30 02:02:52;;;;;;;4.30;3.30;;;19.00;99.90;;;;;;5082523;28;20464;-83
2021/06/30 02:05:20;;;;;;;7.07;3.90;;;19.00;99.90;;;;;;5079731;28;20491;-83
2021/06/30 02:07:49;;;;;;;4.60;4.10;;;19.00;99.90;;;;;;5079933;28;20458;-85
2021/06/30 02:10:17;;;;;;;5.63;4.23;;;19.00;99.90;;;;;;5084524;28;20469;-83
2021/06/30 02:12:45;;;;;;;7.00;4.67;;;19.00;99.90;;;;;;5079917;28;20514;-83
2021/06/30 02:15:17;;;;;;;5.77;4.73;;;19.10;99.90;;;;;;5082610;28;20527;-83
2021/06/30 02:17:45;;;;;;;5.40;4.83;;;19.10;99.90;;;;;;5085871;28;20463;-83
2021/06/30 02:20:13;;;;;;;8.13;4.97;;;19.10;99.90;;;;;;5087000;28;20458;-83
2021/06/30 02:22:41;;;;;;;10.70;5.80;;;19.10;99.90;;;;;;5081418;28;20465;-83
2021/06/30 02:25:12;;;;;;;8.07;6.57;;;19.10;99.90;;;;;;5082079;28;21065;-84
2021/06/30 02:27:39;;;;;;;6.40;5.27;;;19.10;99.90;;;;;;5077430;28;20460;-83
2021/06/30 02:30:09;;;;;;;8.30;5.20;;;19.10;99.90;;;;;;5083036;28;20463;-82
2021/06/30 02:32:37;;;;;;;6.63;5.93;;;19.10;99.90;;;;;;5077192;28;20909;-85
2021/06/30 02:35:06;;;;;;;8.10;6.57;;;19.10;99.90;;;;;;5085172;28;20465;-82
2021/06/30 02:37:32;;;;;;;7.50;5.67;;;19.10;99.90;;;;;;5081499;28;20474;-83
2021/06/30 02:40:00;;;;;;;9.80;6.17;;;19.10;99.90;;;;;;5076791;28;20469;-84
2021/06/30 02:42:26;;;;;;;5.50;4.97;;;19.10;99.90;;;;;;5081033;28;20486;-85
2021/06/30 02:44:54;;;;;;;6.80;5.77;;;19.10;99.90;;;;;;5078943;28;20857;-85
2021/06/30 02:47:21;;;;;;;5.80;5.30;;;19.10;99.90;;;;;;5079836;28;20549;-85
2021/06/30 02:49:49;;;;;;;7.43;5.37;;;19.10;99.90;;;;;;5082871;28;20460;-82
2021/06/30 02:52:16;;;;;;;6.10;4.77;;;19.10;99.90;;;;;;5076184;28;20488;-82
2021/06/30 02:54:43;;;;;;;6.93;4.90;;;19.10;99.90;;;;;;5083409;28;20449;-83
2021/06/30 02:57:10;;;;;;;5.80;4.20;;;19.20;99.90;;;;;;5085018;28;20456;-83
2021/06/30 02:59:38;;;;;;;8.50;4.13;;;19.20;99.90;;;;;;5078084;28;20986;-83
2021/06/30 03:02:05;;;;;;;6.00;4.07;;;19.20;99.90;;;;;;5088530;28;20486;-83
2021/06/30 03:04:32;;;;;;;8.90;3.83;;;19.20;99.90;;;;;;5080162;28;20488;-85
2021/06/30 03:07:00;;;;;;;7.47;3.70;;;19.20;99.90;;;;;;5076256;28;20795;-83
2021/06/30 03:09:27;;;;;;;6.57;3.60;;;19.20;99.90;;;;;;5080858;28;20490;-83
2021/06/30 03:11:54;;;;;;;5.20;4.30;;;19.10;99.90;;;;;;5074652;28;20457;-85
2021/06/30 03:14:21;;;;;;;10.73;4.13;;;19.10;99.90;;;;;;5075619;28;20482;-83
2021/06/30 03:16:48;;;;;;;5.53;3.13;;;19.10;99.90;;;;;;5080689;28;20461;-83
2021/06/30 03:19:16;;;;;;;6.97;3.30;;;19.10;99.90;;;;;;5077564;28;20557;-83
2021/06/30 03:21:43;;;;;;;6.03;3.10;;;19.10;99.90;;;;;;5080603;28;20472;-83
2021/06/30 03:24:12;;;;;;;4.53;3.23;;;19.10;99.90;;;;;;5072984;28;20471;-82
2021/06/30 03:26:39;;;;;;;3.00;2.47;;;19.10;99.90;;;;;;5083950;28;20497;-85
2021/06/30 03:29:06;;;;;;;5.03;2.80;;;19.10;99.90;;;;;;5078917;28;20551;-82
2021/06/30 03:31:34;;;;;;;3.20;2.17;;;19.10;99.90;;;;;;5085580;28;20552;-83
2021/06/30 03:34:01;;;;;;;7.40;2.70;;;19.10;99.90;;;;;;5078712;28;21009;-82
2021/06/30 03:36:28;;;;;;;5.70;2.00;;;19.10;99.90;;;;;;5083445;28;20492;-85
2021/06/30 03:38:55;;;;;;;4.73;2.27;;;19.00;99.90;;;;;;5078705;28;20804;-82
2021/06/30 03:41:23;;;;;;;2.57;2.10;;;19.00;99.90;;;;;;5074255;28;20469;-81
2021/06/30 03:43:50;;;;;;;2.27;1.90;;;19.00;99.90;;;;;;5080112;28;20539;-83
2021/06/30 03:46:17;;;;;;;2.43;2.07;;;19.00;99.90;;;;;;5080980;28;20567;-85
2021/06/30 03:48:44;;;;;;;3.50;2.23;;;19.10;99.90;;;;;;5079253;28;20466;-83
2021/06/30 03:51:11;;;;;;;4.10;2.03;;;19.00;99.90;;;;;;5083506;28;20461;-86
2021/06/30 03:53:38;;;;;;;2.57;2.23;;;19.00;99.90;;;;;;5077097;28;20471;-82
2021/06/30 03:56:06;;;;;;;4.30;1.83;;;19.00;99.90;;;;;;5082072;28;20554;-85
2021/06/30 03:58:34;;;;;;;5.47;2.57;;;19.00;99.90;;;;;;5081386;28;20454;-82
2021/06/30 04:01:02;;;;;;;3.77;2.00;;;19.00;99.90;;;;;;5071054;28;20573;-83
2021/06/30 04:03:29;;;;;;;4.63;2.00;;;19.00;99.90;;;;;;5057436;28;20463;-83
2021/06/30 04:05:57;;;;;;;3.30;2.00;;;19.00;99.90;;;;;;5059043;28;21093;-82
2021/06/30 04:08:24;;;;;;;4.33;1.97;;;19.00;99.90;;;;;;5057447;28;20459;-82
2021/06/30 04:10:52;;;;;;;4.73;2.00;;;19.00;99.90;;;;;;5056641;28;20459;-82
2021/06/30 04:13:19;;;;;;;2.63;2.00;;;19.00;99.90;;;;;;5055956;28;20860;-82
2021/06/30 04:15:47;;;;;;;1.90;1.80;;;18.90;99.90;;;;;;5064123;28;20488;-82
2021/06/30 04:18:14;;;;;;;6.83;2.30;;;19.00;99.90;;;;;;5056752;28;20469;-84
2021/06/30 04:20:43;;;;;;;2.20;2.00;;;18.90;99.90;;;;;;5060692;28;20516;-82
2021/06/30 04:23:11;;;;;;;3.20;2.37;;;18.90;99.90;;;;;;5058358;28;20482;-85
2021/06/30 04:25:38;;;;;;;2.33;2.13;;;19.00;99.90;;;;;;5059832;28;20455;-84
2021/06/30 04:28:06;;;;;;;2.40;2.10;;;19.00;99.90;;;;;;5054491;28;20463;-82
2021/06/30 04:30:33;;;;;;;2.13;1.97;;;19.00;99.90;;;;;;5054636;28;20988;-82
2021/06/30 04:33:01;;;;;;;3.60;2.10;;;19.00;99.90;;;;;;5060015;28;20512;-82
2021/06/30 04:35:28;;;;;;;3.83;2.20;;;19.00;99.90;;;;;;5056267;28;20460;-82
2021/06/30 04:37:55;;;;;;;10.70;2.63;;;19.00;99.90;;;;;;5057042;28;20565;-82
2021/06/30 04:40:22;;;;;;;6.03;2.67;;;19.00;99.90;;;;;;5057252;28;21262;-84
2021/06/30 04:42:49;;;;;;;4.13;2.77;;;19.00;99.90;;;;;;5058983;28;20568;-82
2021/06/30 04:45:16;;;;;;;4.30;2.87;;;19.00;99.90;;;;;;5055618;28;20460;-83
2021/06/30 04:47:43;;;;;;;3.80;2.90;;;19.00;99.90;;;;;;5062222;28;20534;-83
2021/06/30 04:50:13;;;;;;;4.07;3.10;;;19.00;99.90;;;;;;5058022;28;20459;-84
2021/06/30 04:52:40;;;;;;;5.80;4.63;;;19.00;99.90;;;;;;5058135;28;20472;-84
2021/06/30 04:55:08;;;;;;;4.97;4.57;;;19.00;99.90;;;;;;5057554;28;20471;-84
2021/06/30 04:57:36;;;;;;;5.53;5.03;;;19.00;99.90;;;;;;5069047;28;20533;-84
2021/06/30 05:00:05;;;;;;;5.20;4.70;;;18.90;99.90;;;;;;5057338;28;20472;-82
2021/06/30 05:02:32;;;;;;;5.40;4.90;;;18.80;99.90;;;;;;5080075;28;20504;-82
2021/06/30 05:04:59;;;;;;;4.80;4.30;;;18.80;99.90;;;;;;5081457;28;20486;-84
2021/06/30 05:07:27;;;;;;;6.00;5.30;;;18.80;99.90;;;;;;5078988;28;20571;-85
2021/06/30 05:09:54;;;;;;;4.30;4.00;;;18.70;99.90;;;;;;5079782;28;20460;-82
2021/06/30 05:12:21;;;;;;;4.30;3.73;;;18.70;99.90;;;;;;5079185;28;20860;-82
2021/06/30 05:14:48;;;;;;;3.60;3.30;;;18.80;99.90;;;;;;5076164;28;20554;-82
2021/06/30 05:17:15;;;;;;;3.03;2.83;;;18.70;99.90;;;;;;5086182;28;21212;-82
2021/06/30 05:19:42;;;;;;;3.80;3.50;;;18.70;99.90;;;;;;5080872;28;20469;-82
2021/06/30 05:22:09;;;;;;;3.20;2.90;;;18.70;99.90;;;;;;5078984;28;20462;-82
2021/06/30 05:24:38;;;;;;;2.97;2.67;;;18.80;99.90;;;;;;5072593;28;20847;-83
2021/06/30 05:27:05;;;;;;;2.20;2.10;;;18.70;99.90;;;;;;5076528;28;20486;-82
2021/06/30 05:29:32;;;;;;;2.10;1.60;;;18.70;99.90;;;;;;5080523;28;20489;-82
2021/06/30 05:31:59;;;;;;;2.67;2.13;;;18.70;99.90;;;;;;5082440;28;20458;-82
2021/06/30 05:34:26;;;;;;;2.50;2.30;;;18.70;99.90;;;;;;5077541;28;20459;-82
2021/06/30 05:36:53;;;;;;;2.40;2.20;;;18.70;99.90;;;;;;5081370;28;20462;-82
2021/06/30 05:39:22;;;;;;;2.10;1.90;;;18.70;99.90;;;;;;5081499;28;20468;-82
2021/06/30 05:41:50;;;;;;;2.63;2.30;;;18.70;99.90;;;;;;5075108;28;20816;-84
2021/06/30 05:44:17;;;;;;;2.10;1.90;;;18.80;99.90;;;;;;5074736;28;20466;-83
2021/06/30 05:46:45;;;;;;;3.70;1.90;;;18.80;99.90;;;;;;5079033;28;20474;-82
2021/06/30 05:49:12;;;;;;;1.77;1.67;;;18.80;99.90;;;;;;5078231;28;20540;-82
2021/06/30 05:51:41;;;;;;;2.40;1.77;;;18.80;99.90;;;;;;5081881;28;20797;-83
2021/06/30 05:54:08;;;;;;;1.67;1.57;;;18.80;99.90;;;;;;5084771;28;20442;-82
2021/06/30 05:56:35;;;;;;;2.50;1.30;;;18.80;99.90;;;;;;5078411;28;20470;-82
2021/06/30 05:59:03;;;;;;;2.13;1.90;;;18.80;99.90;;;;;;5075961;28;20453;-82
2021/06/30 06:01:31;;;;;;;2.03;1.80;;;18.80;99.90;;;;;;5072102;28;20490;-82
2021/06/30 06:03:58;;;;;;;2.20;1.50;;;18.90;99.90;;;;;;5078273;28;20945;-83
2021/06/30 06:06:27;;;;;;;1.80;1.70;;;18.90;99.90;;;;;;5080504;28;21140;-84
2021/06/30 06:08:54;;;;;;;3.30;2.00;;;18.90;99.90;;;;;;5078545;28;20465;-83
2021/06/30 06:11:20;;;;;;;2.47;1.50;;;18.90;99.90;;;;;;5076362;28;20472;-82
2021/06/30 06:13:48;;;;;;;1.70;1.60;;;18.90;99.90;;;;;;5079156;28;20974;-86
2021/06/30 06:16:20;;;;;;;3.90;2.33;;;18.90;99.90;;;;;;5084076;28;20450;-83
2021/06/30 06:18:47;;;;;;;1.40;1.30;;;18.90;99.90;;;;;;5072931;28;20464;-75
2021/06/30 06:21:15;;;;;;;1.80;1.43;;;19.00;99.90;;;;;;5081107;28;20462;-75
2021/06/30 06:23:42;;;;;;;1.50;1.40;;;19.00;99.90;;;;;;5077608;28;20993;-74
2021/06/30 06:26:09;;;;;;;1.40;1.27;;;19.00;99.90;;;;;;5080224;28;20701;-73
2021/06/30 06:28:36;;;;;;;2.10;1.40;;;19.00;99.90;;;;;;5076168;28;20469;-74
2021/06/30 06:31:05;;;;;;;1.47;1.37;;;19.00;99.90;;;;;;5081235;28;20461;-73
2021/06/30 06:33:33;;;;;;;3.60;2.63;;;19.10;99.90;;;;;;5074007;28;20454;-73
2021/06/30 06:36:00;;;;;;;3.40;3.00;;;19.10;99.90;;;;;;5077759;28;20519;-73
2021/06/30 06:38:27;;;;;;;5.70;3.40;;;19.10;99.90;;;;;;5075685;28;20558;-74
2021/06/30 06:40:54;;;;;;;4.90;3.40;;;19.00;99.90;;;;;;5080438;28;20485;-74
2021/06/30 06:43:21;;;;;;;2.60;2.40;;;19.00;99.90;;;;;;5081442;28;20469;-73
2021/06/30 06:45:48;;;;;;;4.23;3.00;;;19.10;99.90;;;;;;5081855;28;20452;-74
2021/06/30 06:48:15;;;;;;;3.13;2.83;;;19.10;99.90;;;;;;5082811;28;20491;-73
2021/06/30 06:50:43;;;;;;;3.73;3.20;;;19.10;99.90;;;;;;5076062;28;20553;-73
2021/06/30 06:53:10;;;;;;;4.73;3.47;;;19.10;99.90;;;;;;5072220;28;20460;-74
2021/06/30 06:55:37;;;;;;;3.93;3.37;;;19.10;99.90;;;;;;5080965;28;20834;-75
2021/06/30 06:58:04;;;;;;;8.63;3.53;;;19.10;99.90;;;;;;5077605;28;21437;-73
2021/06/30 07:00:31;;;;;;;6.57;4.00;;;19.10;99.90;;;;;;5081830;28;20556;-73
2021/06/30 07:02:58;;;;;;;4.90;4.07;;;19.20;99.90;;;;;;5070141;28;20958;-74
2021/06/30 07:05:25;;;;;;;9.60;5.80;;;19.20;99.90;;;;;;5068282;28;20465;-73
2021/06/30 07:07:54;;;;;;;9.37;5.63;;;19.20;99.90;;;;;;5060035;28;20872;-73
2021/06/30 07:10:20;;;;;;;9.60;6.70;;;19.20;99.90;;;;;;5068481;28;20469;-73
2021/06/30 07:12:47;;;;;;;8.30;6.30;;;19.30;99.90;;;;;;5073343;28;20469;-74
2021/06/30 07:15:14;;;;;;;11.27;7.90;;;19.30;99.90;;;;;;5071602;28;20449;-74
2021/06/30 07:17:41;;;;;;;9.90;7.80;;;19.30;99.90;;;;;;5057742;28;20485;-74
2021/06/30 07:20:10;;;;;;;8.83;6.43;;;19.30;99.90;;;;;;5060455;28;20458;-74
2021/06/30 07:22:36;;;;;;;7.37;5.63;;;19.30;99.90;;;;;;5055965;28;20456;-74
2021/06/30 07:25:06;;;;;;;4.90;2.80;;;19.20;99.90;;;;;;5056854;28;20815;-74
2021/06/30 07:27:36;;;;;;;4.37;3.07;;;19.20;99.90;;;;;;5058904;28;20496;-73
2021/06/30 07:30:03;;;;;;;3.33;2.53;;;19.20;99.90;;;;;;5055637;28;20458;-74
2021/06/30 07:32:30;;;;;;;3.50;2.60;;;19.10;99.90;;;;;;5059003;28;20541;-73
2021/06/30 07:34:57;;;;;;;6.23;4.50;;;19.10;99.90;;;;;;5052866;28;20486;-83
2021/06/30 07:37:24;;;;;;;6.50;5.20;;;19.10;99.90;;;;;;5056817;28;20459;-85
2021/06/30 07:39:51;;;;;;;5.70;4.67;;;19.10;99.90;;;;;;5053123;28;20473;-83
2021/06/30 07:42:19;;;;;;;7.97;5.93;;;19.10;99.90;;;;;;5060834;28;20466;-83
2021/06/30 07:44:46;;;;;;;6.80;4.63;;;19.10;99.90;;;;;;5052720;28;21050;-84
2021/06/30 07:47:13;;;;;;;6.63;5.93;;;19.10;99.90;;;;;;5049950;28;20576;-85
2021/06/30 07:49:40;;;;;;;5.77;4.53;;;19.10;99.90;;;;;;5057140;28;20504;-84
2021/06/30 07:52:07;;;;;;;7.73;4.60;;;19.20;99.90;;;;;;5056934;28;20505;-84
2021/06/30 07:54:34;;;;;;;5.20;3.60;;;19.20;99.90;;;;;;5057169;28;20469;-84
2021/06/30 07:57:01;;;;;;;2.87;2.10;;;19.20;99.90;;;;;;5058566;28;20473;-83
2021/06/30 07:59:30;;;;;;;5.03;2.53;;;19.20;99.90;;;;;;5058013;28;20469;-86
2021/06/30 08:01:57;;;;;;;3.10;2.17;;;19.20;99.90;;;;;;5064016;28;20486;-82
2021/06/30 08:04:24;;;;;;;2.73;2.40;;;19.20;99.90;;;;;;5078756;28;20966;-83
2021/06/30 08:06:51;;;;;;;2.07;1.80;;;19.20;99.90;;;;;;5078339;28;20474;-82
2021/06/30 08:09:17;;;;;;;2.20;2.00;;;19.20;99.90;;;;;;5077329;28;20860;-82
2021/06/30 08:11:44;;;;;;;1.70;1.30;;;19.20;99.90;;;;;;5077473;28;20465;-80
2021/06/30 08:14:12;;;;;;;1.20;0.93;;;19.30;99.90;;;;;;5079782;28;20461;-81
2021/06/30 08:16:40;;;;;;;1.00;0.90;;;19.30;99.90;;;;;;5070610;28;20465;-81
2021/06/30 08:19:09;;;;;;;1.77;1.00;;;19.30;99.90;;;;;;5076681;28;20823;-81
2021/06/30 08:21:36;;;;;;;2.00;1.13;;;19.30;99.90;;;;;;5077134;28;20463;-84
2021/06/30 08:24:02;;;;;;;1.00;0.87;;;19.30;99.90;;;;;;5076283;28;20526;-83
2021/06/30 08:26:29;;;;;;;1.00;0.90;;;19.40;99.90;;;;;;5072196;28;20494;-82
2021/06/30 08:28:57;;;;;;;1.00;0.90;;;19.40;99.90;;;;;;5077780;28;20489;-81
2021/06/30 08:31:24;;;;;;;1.87;0.90;;;19.40;99.90;;;;;;5072327;28;20462;-81
2021/06/30 08:33:53;;;;;;;1.10;1.00;;;19.40;99.90;;;;;;5081659;28;20579;-81
2021/06/30 08:36:19;;;;;;;1.30;0.93;;;19.40;99.90;;;;;;5071812;28;20835;-81
2021/06/30 08:38:46;;;;;;;1.77;0.90;;;19.50;99.90;;;;;;5072761;28;20849;-81
2021/06/30 08:41:13;;;;;;;1.63;0.83;;;19.50;99.90;;;;;;5074600;28;20580;-81
2021/06/30 08:43:40;;;;;;;1.10;1.00;;;19.60;99.90;;;;;;5076471;28;20553;-81
2021/06/30 08:46:08;;;;;;;2.80;1.30;;;19.70;99.90;;;;;;5072208;28;20696;-81
2021/06/30 08:48:38;;;;;;;2.47;1.10;;;19.80;99.90;;;;;;5075615;28;20497;-81
2021/06/30 08:51:10;;;;;;;1.67;1.00;;;19.90;99.90;;;;;;5068300;28;20463;-81
2021/06/30 08:53:40;;;;;;;1.73;1.10;;;20.00;99.90;;;;;;5067727;28;20483;-83
2021/06/30 08:56:08;;;;;;;1.00;0.90;;;20.10;99.90;;;;;;5074532;28;20462;-82
2021/06/30 08:58:36;;;;;;;1.20;1.10;;;20.10;99.90;;;;;;5070250;28;20450;-84
2021/06/30 09:01:03;;;;;;;1.10;1.00;;;20.10;99.90;;;;;;5077932;28;20483;-86
2021/06/30 09:03:31;;;;;;;1.30;1.07;;;20.10;99.90;;;;;;5054183;28;20476;-83
2021/06/30 09:06:11;;;;;;;2.33;1.43;;;20.20;99.90;;;;;;5053597;28;21006;-82
2021/06/30 09:08:59;;;;;;;1.20;0.87;;;20.20;99.90;;;;;;5054183;28;20489;-82
2021/06/30 09:11:28;;;;;;;1.10;1.00;;;20.20;99.90;;;;;;5051805;28;20467;-83
2021/06/30 09:14:21;;;;;;;1.97;1.00;;;20.20;99.90;;;;;;5055731;28;20462;-81
2021/06/30 09:16:59;;;;;;;1.30;1.20;;;20.20;99.90;;;;;;5051774;28;20893;-83
2021/06/30 09:19:56;;;;;;;1.77;1.30;;;20.10;99.90;;;;;;5047946;28;20460;-85
2021/06/30 09:22:25;;;;;;;1.73;1.00;;;20.10;99.90;;;;;;5057363;28;20478;-82
2021/06/30 09:24:54;;;;;;;1.30;1.20;;;20.10;99.90;;;;;;5055221;28;20479;-82
2021/06/30 09:27:42;;;;;;;1.10;1.00;;;20.10;99.90;;;;;;5051864;28;20459;-83
2021/06/30 09:30:11;;;;;;;1.90;1.20;;;20.10;99.90;;;;;;5049512;28;20986;-84
2021/06/30 09:33:01;;;;;;;3.23;1.23;;;20.10;99.90;;;;;;5055391;28;20455;-82
2021/06/30 09:35:31;;;;;;;1.30;0.90;;;20.20;99.90;;;;;;5051174;28;20471;-83
2021/06/30 09:37:58;;;;;;;1.07;0.97;;;20.20;99.90;;;;;;5044493;28;20550;-85
2021/06/30 09:40:45;;;;;;;1.20;1.10;;;20.20;99.90;;;;;;5054895;28;20467;-83
2021/06/30 09:43:23;;;;;;;3.47;1.10;;;20.20;99.90;;;;;;5049073;28;20463;-82
2021/06/30 09:45:50;;;;;;;1.30;1.20;;;20.20;99.90;;;;;;5053992;28;20541;-82
2021/06/30 09:48:27;;;;;;;1.50;1.37;;;20.20;99.90;;;;;;5050918;28;20486;-83
2021/06/30 09:50:55;;;;;;;1.53;1.43;;;20.20;99.90;;;;;;5053654;28;20465;-82
2021/06/30 09:53:35;;;;;;;1.10;1.00;;;20.20;99.90;;;;;;5053604;28;20464;-82
2021/06/30 09:56:11;;;;;;;1.50;1.40;;;20.20;99.90;;;;;;5055615;28;20601;-83
2021/06/30 09:58:38;;;;;;;1.73;1.40;;;20.30;99.90;;;;;;5047574;28;20742;-82
2021/06/30 10:01:16;;;;;;;1.60;1.50;;;20.30;99.90;;;;;;5057238;28;21178;-82
2021/06/30 10:03:43;;;;;;;1.20;1.10;;;20.40;99.90;;;;;;5074612;28;20462;-84
2021/06/30 10:06:24;;;;;;;2.30;1.03;;;20.40;99.90;;;;;;5075194;28;20471;-83
2021/06/30 10:08:51;;;;;;;2.03;1.40;;;20.40;99.90;;;;;;5069417;28;20498;-82
2021/06/30 10:11:20;;;;;;;1.67;1.30;;;20.30;99.90;;;;;;5074268;28;20462;-85
2021/06/30 10:13:47;;;;;;;1.47;1.37;;;20.30;99.90;;;;;;5072657;28;20465;-82
2021/06/30 10:16:18;;;;;;;1.27;1.17;;;20.20;99.90;;;;;;5077685;28;20458;-84
2021/06/30 10:18:46;;;;;;;1.70;1.20;;;20.10;99.90;;;;;;5079534;28;20461;-84
2021/06/30 10:21:12;;;;;;;1.80;1.30;;;20.10;99.90;;;;;;5079268;28;20470;-83
2021/06/30 10:23:40;;;;;;;2.07;1.30;;;20.10;99.90;;;;;;5081428;28;20478;-86
2021/06/30 10:26:07;;;;;;;1.10;1.00;;;20.10;99.90;;;;;;5077230;28;20467;-87
2021/06/30 10:28:36;;;;;;;1.27;1.07;;;20.10;99.90;;;;;;5076539;28;20991;-82
2021/06/30 10:31:03;;;;;;;1.57;1.47;;;20.10;99.90;;;;;;5081801;28;20827;-83
2021/06/30 10:33:32;;;;;;;2.60;1.60;;;20.10;99.90;;;;;;5075369;28;20472;-83
2021/06/30 10:35:59;;;;;;;2.00;1.90;;;20.20;99.90;;;;;;5079057;28;20508;-82
2021/06/30 10:38:53;;;;;;;1.80;1.70;;;20.20;99.90;;;;;;5081833;28;20467;-83
2021/06/30 10:41:37;;;;;;;3.33;1.87;;;20.20;99.90;;;;;;5074306;28;20461;-84
2021/06/30 10:44:14;;;;;;;8.20;1.60;;;20.20;99.90;;;;;;5077339;28;20941;-83
2021/06/30 10:46:41;;;;;;;1.93;1.63;;;20.20;99.90;;;;;;5074308;28;20484;-85
2021/06/30 10:49:27;;;;;;;1.43;1.33;;;20.30;99.90;;;;;;5076492;28;20501;-87
2021/06/30 10:51:57;;;;;;;4.27;2.23;;;20.30;99.90;;;;;;5080226;28;20825;-83
2021/06/30 10:54:45;;;;;;;2.20;2.10;;;20.20;99.90;;;;;;5075998;28;20462;-83
2021/06/30 10:57:36;;;;;;;2.10;2.00;;;20.20;99.90;;;;;;5082512;28;20458;-83
2021/06/30 11:00:23;;;;;;;2.40;2.20;;;20.20;99.90;;;;;;5065594;28;20465;-87
2021/06/30 11:03:25;;;;;;;2.73;2.03;;;20.10;99.90;;;;;;5083244;28;20458;-83
2021/06/30 11:05:53;;;;;;;2.10;1.90;;;20.10;99.90;;;;;;5077747;28;20463;-83
2021/06/30 11:08:43;;;;;;;4.30;2.33;;;20.10;99.90;;;;;;5075813;28;20666;-83
2021/06/30 11:11:11;;;;;;;3.30;2.53;;;20.00;99.90;;;;;;5077798;28;20477;-84
2021/06/30 11:14:01;;;;;;;2.33;2.13;;;20.10;99.90;;;;;;5076024;28;20549;-83
2021/06/30 11:16:54;;;;;;;2.47;2.27;;;20.10;99.90;;;;;;5077924;28;20542;-85
2021/06/30 11:19:43;;;;;;;2.43;2.23;;;20.10;99.90;;;;;;5064345;28;20469;-84
2021/06/30 11:22:24;;;;;;;1.73;1.63;;;20.20;99.90;;;;;;5076191;28;20467;-86
2021/06/30 11:24:52;;;;;;;2.40;2.07;;;20.20;99.90;;;;;;5075863;28;20491;-87
2021/06/30 11:27:45;;;;;;;1.60;1.50;;;20.20;99.90;;;;;;5069507;28;20501;-87
2021/06/30 11:30:14;;;;;;;4.13;2.17;;;20.20;99.90;;;;;;5080281;28;20477;-84
2021/06/30 11:32:49;;;;;;;3.30;2.17;;;20.20;99.90;;;;;;5076135;28;20463;-85
2021/06/30 11:35:32;;;;;;;2.90;2.13;;;20.20;99.90;;;;;;5081813;28;21033;-84
2021/06/30 11:38:02;;;;;;;1.77;1.67;;;20.30;99.90;;;;;;5076924;28;20462;-84
2021/06/30 11:40:34;;;;;;;2.53;2.33;;;20.40;99.90;;;;;;5071948;28;20574;-84
2021/06/30 11:43:01;;;;;;;2.40;2.20;;;20.40;99.90;;;;;;5077117;28;20809;-85
2021/06/30 11:45:30;;;;;;;2.50;1.97;;;20.40;99.90;;;;;;5074637;28;21061;-84
2021/06/30 11:48:00;;;;;;;2.43;2.23;;;20.50;99.90;;;;;;5074930;28;20541;-83
2021/06/30 11:50:30;;;;;;;1.93;1.83;;;20.40;99.90;;;;;;5080906;28;20961;-84
2021/06/30 11:52:58;;;;;;;2.57;2.30;;;20.40;99.90;;;;;;5078792;28;20476;-83
2021/06/30 11:55:26;;;;;;;2.37;2.17;;;20.40;99.90;;;;;;5079256;28;20491;-82
2021/06/30 11:57:55;;;;;;;1.87;1.70;;;20.30;99.90;;;;;;5080684;28;21010;-83
2021/06/30 12:00:23;;;;;;;3.80;1.80;;;20.30;99.90;;;;;;5079629;28;20601;-85
2021/06/30 12:02:51;;;;;;;1.97;1.80;;;20.20;99.90;;;;;;5074818;28;20472;-82
2021/06/30 12:05:23;;;;;;;2.03;1.93;;;20.20;99.90;;;;;;5074971;28;20462;-83
2021/06/30 12:07:51;;;;;;;2.60;2.30;;;20.20;99.90;;;;;;5074590;28;20463;-84
2021/06/30 12:10:18;;;;;;;2.43;2.23;;;20.20;99.90;;;;;;5077226;28;20581;-83
2021/06/30 12:12:46;;;;;;;1.97;1.80;;;20.30;99.90;;;;;;5077985;28;20463;-84
2021/06/30 12:15:14;;;;;;;2.90;2.00;;;20.40;99.90;;;;;;5071879;28;20467;-82
2021/06/30 12:17:47;;;;;;;2.47;2.27;;;20.40;99.90;;;;;;5077743;28;20469;-82
2021/06/30 12:20:15;;;;;;;1.70;1.60;;;20.50;99.90;;;;;;5077599;28;20551;-83
2021/06/30 12:22:44;;;;;;;2.20;2.00;;;20.60;99.90;;;;;;5078334;28;20841;-84
2021/06/30 12:25:20;;;;;;;2.53;2.33;;;20.70;99.90;;;;;;5078273;28;20473;-82
2021/06/30 12:27:49;;;;;;;2.60;2.40;;;20.70;99.90;;;;;;5073466;28;20473;-83
2021/06/30 12:30:18;;;;;;;2.80;2.60;;;20.70;99.90;;;;;;5077628;28;20490;-82
2021/06/30 12:32:48;;;;;;;6.13;2.83;;;20.60;99.90;;;;;;5079751;28;20517;-82
2021/06/30 12:35:16;;;;;;;3.60;3.30;;;20.60;99.90;;;;;;5079560;28;20465;-82
2021/06/30 12:37:53;;;;;;;2.97;2.77;;;20.50;99.90;;;;;;5075556;28;20667;-82
2021/06/30 12:40:20;;;;;;;4.70;3.53;;;20.40;99.90;;;;;;5073239;28;20462;-82
2021/06/30 12:42:54;;;;;;;4.33;3.23;;;20.30;99.90;;;;;;5073068;28;20563;-81
2021/06/30 12:45:23;;;;;;;3.50;3.20;;;20.20;99.90;;;;;;5070864;28;20959;-81
2021/06/30 12:47:53;;;;;;;3.27;2.97;;;20.20;99.90;;;;;;5074488;28;20462;-82
2021/06/30 12:50:32;;;;;;;5.43;3.20;;;20.10;99.90;;;;;;5079038;28;20489;-80
2021/06/30 12:53:01;;;;;;;4.10;3.70;;;20.00;99.90;;;;;;5076520;28;20453;-81
2021/06/30 12:55:28;;;;;;;4.90;3.37;;;19.90;99.90;;;;;;5078884;28;20475;-82
2021/06/30 12:58:00;;;;;;;5.27;3.20;;;19.90;99.90;;;;;;5075361;28;20947;-80